sensor_id;sensor_type;location;lat;lon;timestamp;P1;durP1;ratioP1;P2;durP2;ratioP2
6785;SDS011;3430;51.192;6.048;2023-04-03T00:02:21;3.63;;;2.80;;
6785;SDS011;3430;51.192;6.048;2023-04-03T00:04:46;2.60;;;2.40;;
6785;SDS011;3430;51.192;6.048;2023-04-03T00:07:11;2.93;;;2.70;;
6785;SDS011;3430;51.192;6.048;2023-04-03T00:09:37;2.70;;;2.50;;
6785;SDS011;3430;51.192;6.048;2023-04-03T00:12:03;2.50;;;2.40;;
6785;SDS011;3430;51.192;6.048;2023-04-03T00:14:28;3.33;;;3.13;;
6785;SDS011;3430;51.192;6.048;2023-04-03T00:16:53;3.80;;;2.93;;
6785;SDS011;3430;51.192;6.048;2023-04-03T00:19:19;3.57;;;2.80;;
6785;SDS011;3430;51.192;6.048;2023-04-03T00:21:44;2.90;;;2.60;;
6785;SDS011;3430;51.192;6.048;2023-04-03T00:24:10;3.27;;;2.97;;
6785;SDS011;3430;51.192;6.048;2023-04-03T00:26:35;3.93;;;2.90;;
6785;SDS011;3430;51.192;6.048;2023-04-03T00:29:00;3.33;;;2.90;;
6785;SDS011;3430;51.192;6.048;2023-04-03T00:31:26;2.60;;;2.40;;
6785;SDS011;3430;51.192;6.048;2023-04-03T00:33:51;2.60;;;2.40;;
6785;SDS011;3430;51.192;6.048;2023-04-03T00:36:16;3.50;;;3.07;;
6785;SDS011;3430;51.192;6.048;2023-04-03T00:38:41;2.50;;;2.40;;
6785;SDS011;3430;51.192;6.048;2023-04-03T00:41:07;2.80;;;2.60;;
6785;SDS011;3430;51.192;6.048;2023-04-03T00:43:32;2.87;;;2.67;;
6785;SDS011;3430;51.192;6.048;2023-04-03T00:45:58;3.30;;;2.83;;
6785;SDS011;3430;51.192;6.048;2023-04-03T00:48:37;2.80;;;2.57;;
6785;SDS011;3430;51.192;6.048;2023-04-03T00:51:04;3.00;;;2.70;;
6785;SDS011;3430;51.192;6.048;2023-04-03T00:53:35;2.60;;;2.40;;
6785;SDS011;3430;51.192;6.048;2023-04-03T00:56:02;2.90;;;2.70;;
6785;SDS011;3430;51.192;6.048;2023-04-03T00:58:34;3.43;;;2.80;;
6785;SDS011;3430;51.192;6.048;2023-04-03T01:01:00;2.90;;;2.70;;
6785;SDS011;3430;51.192;6.048;2023-04-03T01:03:28;2.67;;;2.47;;
6785;SDS011;3430;51.192;6.048;2023-04-03T01:05:56;2.70;;;2.50;;
6785;SDS011;3430;51.192;6.048;2023-04-03T01:08:21;2.87;;;2.67;;
6785;SDS011;3430;51.192;6.048;2023-04-03T01:10:47;3.40;;;2.60;;
6785;SDS011;3430;51.192;6.048;2023-04-03T01:13:31;3.30;;;2.80;;
6785;SDS011;3430;51.192;6.048;2023-04-03T01:16:00;2.53;;;2.33;;
6785;SDS011;3430;51.192;6.048;2023-04-03T01:18:25;2.90;;;2.70;;
6785;SDS011;3430;51.192;6.048;2023-04-03T01:21:07;2.80;;;2.60;;
6785;SDS011;3430;51.192;6.048;2023-04-03T01:23:38;3.20;;;2.90;;
6785;SDS011;3430;51.192;6.048;2023-04-03T01:26:09;3.33;;;3.00;;
6785;SDS011;3430;51.192;6.048;2023-04-03T01:28:35;3.00;;;2.60;;
6785;SDS011;3430;51.192;6.048;2023-04-03T01:33:45;2.93;;;2.73;;
6785;SDS011;3430;51.192;6.048;2023-04-03T01:36:13;3.30;;;2.37;;
6785;SDS011;3430;51.192;6.048;2023-04-03T01:38:38;3.30;;;3.10;;
6785;SDS011;3430;51.192;6.048;2023-04-03T01:41:03;2.80;;;2.57;;
6785;SDS011;3430;51.192;6.048;2023-04-03T01:43:29;3.07;;;2.73;;
6785;SDS011;3430;51.192;6.048;2023-04-03T01:45:54;3.03;;;2.80;;
6785;SDS011;3430;51.192;6.048;2023-04-03T01:48:20;2.70;;;2.50;;
6785;SDS011;3430;51.192;6.048;2023-04-03T01:50:45;2.80;;;2.60;;
6785;SDS011;3430;51.192;6.048;2023-04-03T01:53:11;4.17;;;2.97;;
6785;SDS011;3430;51.192;6.048;2023-04-03T01:55:36;3.13;;;2.83;;
6785;SDS011;3430;51.192;6.048;2023-04-03T01:58:01;2.90;;;2.70;;
6785;SDS011;3430;51.192;6.048;2023-04-03T02:00:27;3.30;;;2.63;;
6785;SDS011;3430;51.192;6.048;2023-04-03T02:02:52;3.20;;;2.90;;
6785;SDS011;3430;51.192;6.048;2023-04-03T02:05:17;2.93;;;2.67;;
6785;SDS011;3430;51.192;6.048;2023-04-03T02:07:43;3.10;;;2.80;;
6785;SDS011;3430;51.192;6.048;2023-04-03T02:10:08;3.27;;;2.90;;
6785;SDS011;3430;51.192;6.048;2023-04-03T02:12:34;4.60;;;2.70;;
6785;SDS011;3430;51.192;6.048;2023-04-03T02:14:59;3.00;;;2.80;;
6785;SDS011;3430;51.192;6.048;2023-04-03T02:17:26;3.03;;;2.83;;
6785;SDS011;3430;51.192;6.048;2023-04-03T02:19:51;2.70;;;2.50;;
6785;SDS011;3430;51.192;6.048;2023-04-03T02:22:16;2.97;;;2.67;;
6785;SDS011;3430;51.192;6.048;2023-04-03T02:24:42;2.73;;;2.53;;
6785;SDS011;3430;51.192;6.048;2023-04-03T02:27:07;3.10;;;2.80;;
6785;SDS011;3430;51.192;6.048;2023-04-03T02:29:33;2.50;;;2.30;;
6785;SDS011;3430;51.192;6.048;2023-04-03T02:31:58;3.00;;;2.70;;
6785;SDS011;3430;51.192;6.048;2023-04-03T02:34:24;2.70;;;2.50;;
6785;SDS011;3430;51.192;6.048;2023-04-03T02:36:49;4.03;;;3.23;;
6785;SDS011;3430;51.192;6.048;2023-04-03T02:39:15;3.07;;;2.83;;
6785;SDS011;3430;51.192;6.048;2023-04-03T02:41:41;5.27;;;3.17;;
6785;SDS011;3430;51.192;6.048;2023-04-03T02:44:06;3.13;;;2.93;;
6785;SDS011;3430;51.192;6.048;2023-04-03T02:46:32;3.43;;;2.80;;
6785;SDS011;3430;51.192;6.048;2023-04-03T02:48:58;3.93;;;3.10;;
6785;SDS011;3430;51.192;6.048;2023-04-03T02:51:26;4.10;;;3.00;;
6785;SDS011;3430;51.192;6.048;2023-04-03T02:53:51;4.60;;;3.10;;
6785;SDS011;3430;51.192;6.048;2023-04-03T02:56:17;2.77;;;2.57;;
6785;SDS011;3430;51.192;6.048;2023-04-03T02:58:43;3.00;;;2.80;;
6785;SDS011;3430;51.192;6.048;2023-04-03T03:01:08;2.80;;;2.60;;
6785;SDS011;3430;51.192;6.048;2023-04-03T03:03:34;6.67;;;2.43;;
6785;SDS011;3430;51.192;6.048;2023-04-03T03:06:03;4.00;;;2.97;;
6785;SDS011;3430;51.192;6.048;2023-04-03T03:08:28;3.37;;;3.07;;
6785;SDS011;3430;51.192;6.048;2023-04-03T03:10:54;3.00;;;2.73;;
6785;SDS011;3430;51.192;6.048;2023-04-03T03:13:19;3.07;;;2.80;;
6785;SDS011;3430;51.192;6.048;2023-04-03T03:15:45;3.40;;;2.90;;
6785;SDS011;3430;51.192;6.048;2023-04-03T03:18:10;3.33;;;2.70;;
6785;SDS011;3430;51.192;6.048;2023-04-03T03:20:35;3.37;;;3.07;;
6785;SDS011;3430;51.192;6.048;2023-04-03T03:23:00;3.00;;;2.70;;
6785;SDS011;3430;51.192;6.048;2023-04-03T03:25:26;3.03;;;2.77;;
6785;SDS011;3430;51.192;6.048;2023-04-03T03:27:51;3.27;;;2.97;;
6785;SDS011;3430;51.192;6.048;2023-04-03T03:30:16;3.10;;;2.80;;
6785;SDS011;3430;51.192;6.048;2023-04-03T03:32:41;3.00;;;2.80;;
6785;SDS011;3430;51.192;6.048;2023-04-03T03:35:07;6.33;;;2.70;;
6785;SDS011;3430;51.192;6.048;2023-04-03T03:37:32;3.10;;;2.90;;
6785;SDS011;3430;51.192;6.048;2023-04-03T03:39:58;2.90;;;2.70;;
6785;SDS011;3430;51.192;6.048;2023-04-03T03:42:23;3.10;;;2.80;;
6785;SDS011;3430;51.192;6.048;2023-04-03T03:44:48;3.20;;;2.90;;
6785;SDS011;3430;51.192;6.048;2023-04-03T03:47:14;3.13;;;2.90;;
6785;SDS011;3430;51.192;6.048;2023-04-03T03:49:39;3.23;;;2.83;;
6785;SDS011;3430;51.192;6.048;2023-04-03T03:52:04;2.87;;;2.67;;
6785;SDS011;3430;51.192;6.048;2023-04-03T03:54:29;2.83;;;2.63;;
6785;SDS011;3430;51.192;6.048;2023-04-03T03:56:55;3.73;;;3.10;;
6785;SDS011;3430;51.192;6.048;2023-04-03T03:59:20;3.03;;;2.77;;
6785;SDS011;3430;51.192;6.048;2023-04-03T04:01:45;3.57;;;3.03;;
6785;SDS011;3430;51.192;6.048;2023-04-03T04:04:11;3.43;;;3.00;;
6785;SDS011;3430;51.192;6.048;2023-04-03T04:06:36;3.80;;;3.20;;
6785;SDS011;3430;51.192;6.048;2023-04-03T04:09:01;3.20;;;2.90;;
6785;SDS011;3430;51.192;6.048;2023-04-03T04:11:27;3.40;;;3.10;;
6785;SDS011;3430;51.192;6.048;2023-04-03T04:13:52;4.43;;;3.20;;
6785;SDS011;3430;51.192;6.048;2023-04-03T04:16:18;3.00;;;2.77;;
6785;SDS011;3430;51.192;6.048;2023-04-03T04:18:43;3.47;;;3.17;;
6785;SDS011;3430;51.192;6.048;2023-04-03T04:21:08;3.40;;;3.10;;
6785;SDS011;3430;51.192;6.048;2023-04-03T04:23:34;3.53;;;3.23;;
6785;SDS011;3430;51.192;6.048;2023-04-03T04:25:59;3.63;;;3.00;;
6785;SDS011;3430;51.192;6.048;2023-04-03T04:28:25;3.87;;;3.57;;
6785;SDS011;3430;51.192;6.048;2023-04-03T04:30:50;3.77;;;3.47;;
6785;SDS011;3430;51.192;6.048;2023-04-03T04:33:15;3.50;;;3.13;;
6785;SDS011;3430;51.192;6.048;2023-04-03T04:35:41;3.47;;;3.17;;
6785;SDS011;3430;51.192;6.048;2023-04-03T04:38:07;3.43;;;3.13;;
6785;SDS011;3430;51.192;6.048;2023-04-03T04:40:33;3.37;;;3.07;;
6785;SDS011;3430;51.192;6.048;2023-04-03T04:42:58;3.03;;;2.83;;
6785;SDS011;3430;51.192;6.048;2023-04-03T04:45:24;3.77;;;3.47;;
6785;SDS011;3430;51.192;6.048;2023-04-03T04:47:49;3.83;;;3.10;;
6785;SDS011;3430;51.192;6.048;2023-04-03T04:50:16;3.97;;;3.03;;
6785;SDS011;3430;51.192;6.048;2023-04-03T04:52:41;3.57;;;3.27;;
6785;SDS011;3430;51.192;6.048;2023-04-03T04:55:07;4.57;;;3.50;;
6785;SDS011;3430;51.192;6.048;2023-04-03T04:57:32;3.20;;;2.93;;
6785;SDS011;3430;51.192;6.048;2023-04-03T04:59:57;4.90;;;3.10;;
6785;SDS011;3430;51.192;6.048;2023-04-03T05:02:23;3.73;;;2.87;;
6785;SDS011;3430;51.192;6.048;2023-04-03T05:04:48;4.57;;;3.27;;
6785;SDS011;3430;51.192;6.048;2023-04-03T05:07:15;3.47;;;3.17;;
6785;SDS011;3430;51.192;6.048;2023-04-03T05:09:40;3.43;;;3.13;;
6785;SDS011;3430;51.192;6.048;2023-04-03T05:12:07;3.93;;;3.63;;
6785;SDS011;3430;51.192;6.048;2023-04-03T05:14:33;3.17;;;2.83;;
6785;SDS011;3430;51.192;6.048;2023-04-03T05:16:59;3.63;;;3.33;;
6785;SDS011;3430;51.192;6.048;2023-04-03T05:19:24;4.00;;;3.30;;
6785;SDS011;3430;51.192;6.048;2023-04-03T05:21:49;2.93;;;2.73;;
6785;SDS011;3430;51.192;6.048;2023-04-03T05:24:15;4.63;;;3.20;;
6785;SDS011;3430;51.192;6.048;2023-04-03T05:26:41;3.20;;;2.90;;
6785;SDS011;3430;51.192;6.048;2023-04-03T05:29:06;4.77;;;3.37;;
6785;SDS011;3430;51.192;6.048;2023-04-03T05:31:32;3.60;;;3.30;;
6785;SDS011;3430;51.192;6.048;2023-04-03T05:33:57;5.40;;;3.10;;
6785;SDS011;3430;51.192;6.048;2023-04-03T05:36:23;4.03;;;3.33;;
6785;SDS011;3430;51.192;6.048;2023-04-03T05:38:48;4.10;;;3.77;;
6785;SDS011;3430;51.192;6.048;2023-04-03T05:41:13;3.93;;;3.13;;
6785;SDS011;3430;51.192;6.048;2023-04-03T05:43:39;3.27;;;3.03;;
6785;SDS011;3430;51.192;6.048;2023-04-03T05:46:09;4.10;;;3.53;;
6785;SDS011;3430;51.192;6.048;2023-04-03T05:48:34;5.50;;;3.10;;
6785;SDS011;3430;51.192;6.048;2023-04-03T05:51:00;6.57;;;3.53;;
6785;SDS011;3430;51.192;6.048;2023-04-03T05:53:27;6.97;;;3.10;;
6785;SDS011;3430;51.192;6.048;2023-04-03T05:55:53;3.57;;;3.20;;
6785;SDS011;3430;51.192;6.048;2023-04-03T05:58:18;3.60;;;3.27;;
6785;SDS011;3430;51.192;6.048;2023-04-03T06:00:44;4.10;;;3.70;;
6785;SDS011;3430;51.192;6.048;2023-04-03T06:03:10;3.77;;;3.33;;
6785;SDS011;3430;51.192;6.048;2023-04-03T06:05:35;3.53;;;3.20;;
6785;SDS011;3430;51.192;6.048;2023-04-03T06:08:01;3.70;;;2.73;;
6785;SDS011;3430;51.192;6.048;2023-04-03T06:10:26;6.30;;;3.37;;
6785;SDS011;3430;51.192;6.048;2023-04-03T06:12:52;3.70;;;3.40;;
6785;SDS011;3430;51.192;6.048;2023-04-03T06:15:17;3.37;;;3.10;;
6785;SDS011;3430;51.192;6.048;2023-04-03T06:17:42;3.13;;;2.93;;
6785;SDS011;3430;51.192;6.048;2023-04-03T06:20:08;5.57;;;3.50;;
6785;SDS011;3430;51.192;6.048;2023-04-03T06:22:34;3.60;;;3.23;;
6785;SDS011;3430;51.192;6.048;2023-04-03T06:24:59;3.20;;;2.80;;
6785;SDS011;3430;51.192;6.048;2023-04-03T06:27:25;6.00;;;3.20;;
6785;SDS011;3430;51.192;6.048;2023-04-03T06:29:50;4.83;;;3.00;;
6785;SDS011;3430;51.192;6.048;2023-04-03T06:32:16;3.87;;;3.30;;
6785;SDS011;3430;51.192;6.048;2023-04-03T06:34:41;3.37;;;3.07;;
6785;SDS011;3430;51.192;6.048;2023-04-03T06:37:10;3.43;;;3.07;;
6785;SDS011;3430;51.192;6.048;2023-04-03T06:39:35;5.07;;;3.43;;
6785;SDS011;3430;51.192;6.048;2023-04-03T06:42:01;3.50;;;3.20;;
6785;SDS011;3430;51.192;6.048;2023-04-03T06:44:26;5.20;;;3.17;;
6785;SDS011;3430;51.192;6.048;2023-04-03T06:46:51;3.50;;;3.10;;
6785;SDS011;3430;51.192;6.048;2023-04-03T06:49:17;3.70;;;3.23;;
6785;SDS011;3430;51.192;6.048;2023-04-03T06:51:42;6.03;;;3.27;;
6785;SDS011;3430;51.192;6.048;2023-04-03T06:54:08;3.70;;;3.40;;
6785;SDS011;3430;51.192;6.048;2023-04-03T06:56:33;3.80;;;3.43;;
6785;SDS011;3430;51.192;6.048;2023-04-03T06:58:58;3.27;;;2.63;;
6785;SDS011;3430;51.192;6.048;2023-04-03T07:01:24;3.23;;;2.93;;
6785;SDS011;3430;51.192;6.048;2023-04-03T07:03:51;5.60;;;3.03;;
6785;SDS011;3430;51.192;6.048;2023-04-03T07:06:17;4.37;;;3.03;;
6785;SDS011;3430;51.192;6.048;2023-04-03T07:08:43;4.90;;;3.17;;
6785;SDS011;3430;51.192;6.048;2023-04-03T07:11:09;4.57;;;3.30;;
6785;SDS011;3430;51.192;6.048;2023-04-03T07:13:35;6.30;;;3.60;;
6785;SDS011;3430;51.192;6.048;2023-04-03T07:16:00;3.77;;;3.00;;
6785;SDS011;3430;51.192;6.048;2023-04-03T07:18:26;3.43;;;2.93;;
6785;SDS011;3430;51.192;6.048;2023-04-03T07:20:51;4.73;;;3.40;;
6785;SDS011;3430;51.192;6.048;2023-04-03T07:23:17;3.87;;;3.13;;
6785;SDS011;3430;51.192;6.048;2023-04-03T07:25:43;6.63;;;3.43;;
6785;SDS011;3430;51.192;6.048;2023-04-03T07:28:09;5.87;;;2.93;;
6785;SDS011;3430;51.192;6.048;2023-04-03T07:30:34;4.73;;;3.17;;
6785;SDS011;3430;51.192;6.048;2023-04-03T07:32:59;3.97;;;2.83;;
6785;SDS011;3430;51.192;6.048;2023-04-03T07:35:25;5.43;;;3.37;;
6785;SDS011;3430;51.192;6.048;2023-04-03T07:37:51;3.30;;;3.00;;
6785;SDS011;3430;51.192;6.048;2023-04-03T07:40:16;6.63;;;3.73;;
6785;SDS011;3430;51.192;6.048;2023-04-03T07:42:42;3.77;;;2.87;;
6785;SDS011;3430;51.192;6.048;2023-04-03T07:45:07;7.10;;;3.17;;
6785;SDS011;3430;51.192;6.048;2023-04-03T07:47:33;5.67;;;3.10;;
6785;SDS011;3430;51.192;6.048;2023-04-03T07:49:58;5.27;;;3.40;;
6785;SDS011;3430;51.192;6.048;2023-04-03T07:52:24;4.07;;;3.10;;
6785;SDS011;3430;51.192;6.048;2023-04-03T07:54:50;6.00;;;3.10;;
6785;SDS011;3430;51.192;6.048;2023-04-03T07:57:15;3.53;;;2.67;;
6785;SDS011;3430;51.192;6.048;2023-04-03T07:59:41;4.53;;;2.90;;
6785;SDS011;3430;51.192;6.048;2023-04-03T08:02:11;3.20;;;2.87;;
6785;SDS011;3430;51.192;6.048;2023-04-03T08:04:36;3.73;;;2.83;;
6785;SDS011;3430;51.192;6.048;2023-04-03T08:07:01;3.70;;;2.90;;
6785;SDS011;3430;51.192;6.048;2023-04-03T08:09:27;3.00;;;2.70;;
6785;SDS011;3430;51.192;6.048;2023-04-03T08:11:52;3.60;;;2.93;;
6785;SDS011;3430;51.192;6.048;2023-04-03T08:14:18;3.50;;;2.87;;
6785;SDS011;3430;51.192;6.048;2023-04-03T08:16:44;6.80;;;2.97;;
6785;SDS011;3430;51.192;6.048;2023-04-03T08:19:10;7.73;;;3.30;;
6785;SDS011;3430;51.192;6.048;2023-04-03T08:21:36;3.53;;;3.23;;
6785;SDS011;3430;51.192;6.048;2023-04-03T08:24:01;7.77;;;3.10;;
6785;SDS011;3430;51.192;6.048;2023-04-03T08:26:29;3.57;;;3.27;;
6785;SDS011;3430;51.192;6.048;2023-04-03T08:28:54;3.10;;;2.80;;
6785;SDS011;3430;51.192;6.048;2023-04-03T08:31:20;3.00;;;2.50;;
6785;SDS011;3430;51.192;6.048;2023-04-03T08:33:46;3.50;;;2.60;;
6785;SDS011;3430;51.192;6.048;2023-04-03T08:36:29;8.93;;;3.37;;
6785;SDS011;3430;51.192;6.048;2023-04-03T08:38:55;6.60;;;2.97;;
6785;SDS011;3430;51.192;6.048;2023-04-03T08:41:32;5.93;;;2.60;;
6785;SDS011;3430;51.192;6.048;2023-04-03T08:46:47;2.97;;;2.60;;
6785;SDS011;3430;51.192;6.048;2023-04-03T08:49:18;3.27;;;2.70;;
6785;SDS011;3430;51.192;6.048;2023-04-03T08:51:46;3.53;;;2.80;;
6785;SDS011;3430;51.192;6.048;2023-04-03T08:54:20;5.73;;;2.87;;
6785;SDS011;3430;51.192;6.048;2023-04-03T08:56:46;3.50;;;2.97;;
6785;SDS011;3430;51.192;6.048;2023-04-03T08:59:24;3.73;;;2.53;;
6785;SDS011;3430;51.192;6.048;2023-04-03T09:01:50;2.77;;;2.57;;
6785;SDS011;3430;51.192;6.048;2023-04-03T09:04:16;3.27;;;2.97;;
6785;SDS011;3430;51.192;6.048;2023-04-03T09:06:43;2.83;;;2.50;;
6785;SDS011;3430;51.192;6.048;2023-04-03T09:09:15;3.33;;;2.83;;
6785;SDS011;3430;51.192;6.048;2023-04-03T09:14:31;2.43;;;2.13;;
6785;SDS011;3430;51.192;6.048;2023-04-03T09:17:00;2.40;;;2.20;;
6785;SDS011;3430;51.192;6.048;2023-04-03T09:21:51;3.23;;;2.13;;
6785;SDS011;3430;51.192;6.048;2023-04-03T09:24:17;4.10;;;2.60;;
6785;SDS011;3430;51.192;6.048;2023-04-03T09:29:08;4.07;;;2.50;;
6785;SDS011;3430;51.192;6.048;2023-04-03T09:31:42;2.47;;;2.27;;
6785;SDS011;3430;51.192;6.048;2023-04-03T09:34:19;2.97;;;2.77;;
6785;SDS011;3430;51.192;6.048;2023-04-03T09:36:50;2.30;;;2.10;;
6785;SDS011;3430;51.192;6.048;2023-04-03T09:39:17;4.17;;;2.80;;
6785;SDS011;3430;51.192;6.048;2023-04-03T09:42:05;3.77;;;2.50;;
6785;SDS011;3430;51.192;6.048;2023-04-03T09:44:35;4.47;;;2.33;;
6785;SDS011;3430;51.192;6.048;2023-04-03T09:47:17;2.50;;;2.30;;
6785;SDS011;3430;51.192;6.048;2023-04-03T09:49:43;2.53;;;2.33;;
6785;SDS011;3430;51.192;6.048;2023-04-03T09:52:18;2.37;;;2.17;;
6785;SDS011;3430;51.192;6.048;2023-04-03T09:54:44;3.07;;;2.50;;
6785;SDS011;3430;51.192;6.048;2023-04-03T09:57:13;2.30;;;2.10;;
6785;SDS011;3430;51.192;6.048;2023-04-03T09:59:46;2.83;;;2.63;;
6785;SDS011;3430;51.192;6.048;2023-04-03T10:02:34;2.47;;;2.10;;
6785;SDS011;3430;51.192;6.048;2023-04-03T10:05:00;3.03;;;2.13;;
6785;SDS011;3430;51.192;6.048;2023-04-03T10:07:35;2.50;;;2.27;;
6785;SDS011;3430;51.192;6.048;2023-04-03T10:10:18;3.40;;;2.30;;
6785;SDS011;3430;51.192;6.048;2023-04-03T10:12:45;2.57;;;2.10;;
6785;SDS011;3430;51.192;6.048;2023-04-03T10:15:13;2.70;;;2.03;;
6785;SDS011;3430;51.192;6.048;2023-04-03T10:17:47;2.20;;;2.00;;
6785;SDS011;3430;51.192;6.048;2023-04-03T10:25:29;5.03;;;2.30;;
6785;SDS011;3430;51.192;6.048;2023-04-03T10:28:05;2.57;;;2.37;;
6785;SDS011;3430;51.192;6.048;2023-04-03T10:33:23;2.47;;;2.27;;
6785;SDS011;3430;51.192;6.048;2023-04-03T10:41:04;2.13;;;1.93;;
6785;SDS011;3430;51.192;6.048;2023-04-03T10:43:43;4.40;;;2.20;;
6785;SDS011;3430;51.192;6.048;2023-04-03T10:53:44;2.50;;;2.30;;
6785;SDS011;3430;51.192;6.048;2023-04-03T10:56:18;2.27;;;2.13;;
6785;SDS011;3430;51.192;6.048;2023-04-03T10:58:51;2.40;;;1.87;;
6785;SDS011;3430;51.192;6.048;2023-04-03T11:01:20;2.60;;;2.40;;
6785;SDS011;3430;51.192;6.048;2023-04-03T11:03:51;2.20;;;2.00;;
6785;SDS011;3430;51.192;6.048;2023-04-03T11:06:17;3.73;;;1.97;;
6785;SDS011;3430;51.192;6.048;2023-04-03T11:08:55;2.43;;;1.90;;
6785;SDS011;3430;51.192;6.048;2023-04-03T11:11:29;2.23;;;2.07;;
6785;SDS011;3430;51.192;6.048;2023-04-03T11:13:56;3.03;;;2.73;;
6785;SDS011;3430;51.192;6.048;2023-04-03T11:16:24;2.30;;;2.10;;
6785;SDS011;3430;51.192;6.048;2023-04-03T11:19:05;3.10;;;2.10;;
6785;SDS011;3430;51.192;6.048;2023-04-03T11:21:40;2.33;;;1.87;;
6785;SDS011;3430;51.192;6.048;2023-04-03T11:24:11;2.10;;;1.87;;
6785;SDS011;3430;51.192;6.048;2023-04-03T11:26:40;2.40;;;2.20;;
6785;SDS011;3430;51.192;6.048;2023-04-03T11:29:11;2.60;;;2.20;;
6785;SDS011;3430;51.192;6.048;2023-04-03T11:36:45;6.70;;;2.20;;
6785;SDS011;3430;51.192;6.048;2023-04-03T11:39:26;4.03;;;2.10;;
6785;SDS011;3430;51.192;6.048;2023-04-03T11:41:52;2.17;;;1.93;;
6785;SDS011;3430;51.192;6.048;2023-04-03T11:44:36;4.07;;;2.10;;
6785;SDS011;3430;51.192;6.048;2023-04-03T11:47:03;4.33;;;2.10;;
6785;SDS011;3430;51.192;6.048;2023-04-03T11:52:12;3.13;;;2.00;;
6785;SDS011;3430;51.192;6.048;2023-04-03T11:59:53;2.60;;;1.93;;
6785;SDS011;3430;51.192;6.048;2023-04-03T12:02:34;5.40;;;2.30;;
6785;SDS011;3430;51.192;6.048;2023-04-03T12:05:45;2.17;;;2.00;;
6785;SDS011;3430;51.192;6.048;2023-04-03T12:08:10;4.10;;;2.60;;
6785;SDS011;3430;51.192;6.048;2023-04-03T12:10:31;3.50;;;2.10;;
6785;SDS011;3430;51.192;6.048;2023-04-03T12:12:57;3.17;;;2.87;;
6785;SDS011;3430;51.192;6.048;2023-04-03T12:15:26;2.40;;;1.97;;
6785;SDS011;3430;51.192;6.048;2023-04-03T12:17:52;3.57;;;2.17;;
6785;SDS011;3430;51.192;6.048;2023-04-03T12:23:22;3.20;;;1.93;;
6785;SDS011;3430;51.192;6.048;2023-04-03T12:25:49;3.07;;;2.13;;
6785;SDS011;3430;51.192;6.048;2023-04-03T12:28:14;2.60;;;2.23;;
6785;SDS011;3430;51.192;6.048;2023-04-03T12:30:40;2.67;;;2.33;;
6785;SDS011;3430;51.192;6.048;2023-04-03T12:35:37;2.40;;;2.17;;
6785;SDS011;3430;51.192;6.048;2023-04-03T12:40:53;2.33;;;2.13;;
6785;SDS011;3430;51.192;6.048;2023-04-03T12:43:20;2.17;;;2.07;;
6785;SDS011;3430;51.192;6.048;2023-04-03T12:45:51;2.10;;;2.00;;
6785;SDS011;3430;51.192;6.048;2023-04-03T12:48:18;4.80;;;2.33;;
6785;SDS011;3430;51.192;6.048;2023-04-03T12:50:47;2.67;;;2.20;;
6785;SDS011;3430;51.192;6.048;2023-04-03T12:53:27;2.60;;;2.27;;
6785;SDS011;3430;51.192;6.048;2023-04-03T12:55:56;2.17;;;2.00;;
6785;SDS011;3430;51.192;6.048;2023-04-03T12:58:22;2.60;;;2.40;;
6785;SDS011;3430;51.192;6.048;2023-04-03T13:00:59;2.43;;;2.23;;
6785;SDS011;3430;51.192;6.048;2023-04-03T13:03:25;4.73;;;2.00;;
6785;SDS011;3430;51.192;6.048;2023-04-03T13:05:57;2.10;;;1.90;;
6785;SDS011;3430;51.192;6.048;2023-04-03T13:08:23;2.20;;;2.00;;
6785;SDS011;3430;51.192;6.048;2023-04-03T13:13:17;2.03;;;1.90;;
6785;SDS011;3430;51.192;6.048;2023-04-03T13:15:46;2.57;;;2.37;;
6785;SDS011;3430;51.192;6.048;2023-04-03T13:18:33;2.50;;;2.20;;
6785;SDS011;3430;51.192;6.048;2023-04-03T13:21:01;2.93;;;2.10;;
6785;SDS011;3430;51.192;6.048;2023-04-03T13:23:29;2.30;;;2.10;;
6785;SDS011;3430;51.192;6.048;2023-04-03T13:25:55;2.40;;;2.20;;
6785;SDS011;3430;51.192;6.048;2023-04-03T13:28:23;3.63;;;2.20;;
6785;SDS011;3430;51.192;6.048;2023-04-03T13:31:15;2.17;;;2.00;;
6785;SDS011;3430;51.192;6.048;2023-04-03T13:33:50;2.20;;;2.00;;
6785;SDS011;3430;51.192;6.048;2023-04-03T13:36:18;3.70;;;2.30;;
6785;SDS011;3430;51.192;6.048;2023-04-03T13:38:44;4.77;;;2.33;;
6785;SDS011;3430;51.192;6.048;2023-04-03T13:43:54;2.13;;;1.97;;
6785;SDS011;3430;51.192;6.048;2023-04-03T13:48:49;2.10;;;1.93;;
6785;SDS011;3430;51.192;6.048;2023-04-03T13:51:22;4.07;;;2.30;;
6785;SDS011;3430;51.192;6.048;2023-04-03T13:53:49;2.50;;;2.00;;
6785;SDS011;3430;51.192;6.048;2023-04-03T13:56:17;2.27;;;2.07;;
6785;SDS011;3430;51.192;6.048;2023-04-03T13:58:53;2.10;;;2.00;;
6785;SDS011;3430;51.192;6.048;2023-04-03T14:01:25;1.97;;;1.87;;
6785;SDS011;3430;51.192;6.048;2023-04-03T14:06:20;3.53;;;2.00;;
6785;SDS011;3430;51.192;6.048;2023-04-03T14:08:45;2.50;;;2.30;;
6785;SDS011;3430;51.192;6.048;2023-04-03T14:11:14;2.90;;;2.10;;
6785;SDS011;3430;51.192;6.048;2023-04-03T14:13:42;2.00;;;1.90;;
6785;SDS011;3430;51.192;6.048;2023-04-03T14:16:12;2.70;;;2.43;;
6785;SDS011;3430;51.192;6.048;2023-04-03T14:18:38;2.90;;;1.93;;
6785;SDS011;3430;51.192;6.048;2023-04-03T14:21:04;3.17;;;2.30;;
6785;SDS011;3430;51.192;6.048;2023-04-03T14:23:29;2.50;;;2.20;;
6785;SDS011;3430;51.192;6.048;2023-04-03T14:25:55;2.53;;;1.87;;
6785;SDS011;3430;51.192;6.048;2023-04-03T14:28:21;2.27;;;2.00;;
6785;SDS011;3430;51.192;6.048;2023-04-03T14:30:48;2.20;;;2.00;;
6785;SDS011;3430;51.192;6.048;2023-04-03T14:33:15;2.20;;;2.00;;
6785;SDS011;3430;51.192;6.048;2023-04-03T14:35:40;3.03;;;2.20;;
6785;SDS011;3430;51.192;6.048;2023-04-03T14:38:15;2.83;;;2.20;;
6785;SDS011;3430;51.192;6.048;2023-04-03T14:40:45;2.60;;;2.17;;
6785;SDS011;3430;51.192;6.048;2023-04-03T14:43:13;4.07;;;2.30;;
6785;SDS011;3430;51.192;6.048;2023-04-03T14:45:38;4.20;;;1.93;;
6785;SDS011;3430;51.192;6.048;2023-04-03T14:48:04;2.73;;;2.20;;
6785;SDS011;3430;51.192;6.048;2023-04-03T14:50:29;2.43;;;2.10;;
6785;SDS011;3430;51.192;6.048;2023-04-03T14:52:56;2.77;;;2.03;;
6785;SDS011;3430;51.192;6.048;2023-04-03T14:55:23;2.70;;;2.07;;
6785;SDS011;3430;51.192;6.048;2023-04-03T14:57:49;4.03;;;2.10;;
6785;SDS011;3430;51.192;6.048;2023-04-03T15:00:17;2.60;;;2.40;;
6785;SDS011;3430;51.192;6.048;2023-04-03T15:02:42;2.80;;;2.30;;
6785;SDS011;3430;51.192;6.048;2023-04-03T15:05:09;4.07;;;2.37;;
6785;SDS011;3430;51.192;6.048;2023-04-03T15:07:36;3.00;;;2.70;;
6785;SDS011;3430;51.192;6.048;2023-04-03T15:12:40;2.00;;;1.90;;
6785;SDS011;3430;51.192;6.048;2023-04-03T15:15:05;2.60;;;2.40;;
6785;SDS011;3430;51.192;6.048;2023-04-03T15:17:31;2.60;;;2.20;;
6785;SDS011;3430;51.192;6.048;2023-04-03T15:19:56;2.33;;;2.13;;
6785;SDS011;3430;51.192;6.048;2023-04-03T15:22:23;2.30;;;2.03;;
6785;SDS011;3430;51.192;6.048;2023-04-03T15:24:48;2.10;;;1.90;;
6785;SDS011;3430;51.192;6.048;2023-04-03T15:27:13;2.57;;;2.37;;
6785;SDS011;3430;51.192;6.048;2023-04-03T15:29:40;2.50;;;2.30;;
6785;SDS011;3430;51.192;6.048;2023-04-03T15:32:06;4.60;;;2.10;;
6785;SDS011;3430;51.192;6.048;2023-04-03T15:34:32;2.57;;;2.37;;
6785;SDS011;3430;51.192;6.048;2023-04-03T15:36:57;2.17;;;1.97;;
6785;SDS011;3430;51.192;6.048;2023-04-03T15:39:24;2.53;;;2.03;;
6785;SDS011;3430;51.192;6.048;2023-04-03T15:41:49;2.00;;;1.90;;
6785;SDS011;3430;51.192;6.048;2023-04-03T15:44:16;2.63;;;2.27;;
6785;SDS011;3430;51.192;6.048;2023-04-03T15:46:48;2.87;;;2.17;;
6785;SDS011;3430;51.192;6.048;2023-04-03T15:49:16;5.37;;;2.40;;
6785;SDS011;3430;51.192;6.048;2023-04-03T15:51:41;1.77;;;1.67;;
6785;SDS011;3430;51.192;6.048;2023-04-03T15:54:07;2.60;;;2.20;;
6785;SDS011;3430;51.192;6.048;2023-04-03T15:56:32;2.20;;;2.00;;
6785;SDS011;3430;51.192;6.048;2023-04-03T15:58:57;3.87;;;2.67;;
6785;SDS011;3430;51.192;6.048;2023-04-03T16:01:23;2.27;;;2.17;;
6785;SDS011;3430;51.192;6.048;2023-04-03T16:03:48;3.60;;;2.60;;
6785;SDS011;3430;51.192;6.048;2023-04-03T16:06:15;2.00;;;1.90;;
6785;SDS011;3430;51.192;6.048;2023-04-03T16:08:41;2.07;;;1.97;;
6785;SDS011;3430;51.192;6.048;2023-04-03T16:11:06;2.83;;;2.30;;
6785;SDS011;3430;51.192;6.048;2023-04-03T16:13:32;2.30;;;2.10;;
6785;SDS011;3430;51.192;6.048;2023-04-03T16:15:58;2.17;;;1.97;;
6785;SDS011;3430;51.192;6.048;2023-04-03T16:18:24;5.03;;;2.30;;
6785;SDS011;3430;51.192;6.048;2023-04-03T16:20:49;2.33;;;2.13;;
6785;SDS011;3430;51.192;6.048;2023-04-03T16:23:14;2.50;;;2.30;;
6785;SDS011;3430;51.192;6.048;2023-04-03T16:25:40;2.20;;;2.00;;